createdAt,value
2019-05-21T00:00:35.607Z,99.99
2019-05-21T00:01:35.588Z,99.99
2019-05-21T00:02:35.590Z,99.99
2019-05-21T00:03:35.578Z,99.99
2019-05-21T00:04:35.564Z,99.99
2019-05-21T00:05:35.547Z,99.99
2019-05-21T00:06:35.560Z,99.99
2019-05-21T00:07:35.553Z,99.99
2019-05-21T00:08:35.511Z,99.99
2019-05-21T00:09:35.499Z,99.99
2019-05-21T00:10:35.497Z,99.99
2019-05-21T00:11:35.479Z,99.99
2019-05-21T00:12:35.475Z,99.99
2019-05-21T00:13:35.456Z,99.99
2019-05-21T00:14:35.455Z,99.99
2019-05-21T00:15:35.435Z,99.99
2019-05-21T00:16:35.426Z,99.99
2019-05-21T00:17:35.425Z,99.99
2019-05-21T00:18:35.423Z,99.99
2019-05-21T00:19:35.385Z,99.99
2019-05-21T00:20:35.369Z,99.99
2019-05-21T00:21:35.359Z,99.99
2019-05-21T00:22:35.650Z,99.99
2019-05-21T00:23:35.368Z,99.99
2019-05-21T00:24:35.382Z,99.99
2019-05-21T00:25:35.357Z,99.99
2019-05-21T00:26:35.312Z,99.99
2019-05-21T00:27:35.294Z,99.99
2019-05-21T00:28:35.323Z,99.99
2019-05-21T00:29:35.271Z,99.99
2019-05-21T00:30:35.259Z,99.99
2019-05-21T00:31:35.259Z,99.99
2019-05-21T00:32:35.235Z,99.99
2019-05-21T00:33:35.243Z,99.99
2019-05-21T00:34:43.554Z,99.99
2019-05-21T00:35:36.198Z,99.99
2019-05-21T00:36:35.271Z,99.99
2019-05-21T00:37:35.181Z,99.99
2019-05-21T00:38:35.179Z,99.99
2019-05-21T00:39:35.161Z,99.96
2019-05-21T00:40:35.155Z,99.99
2019-05-21T00:41:35.140Z,99.99
2019-05-21T00:42:35.121Z,99.99
2019-05-21T00:43:35.125Z,99.99
2019-05-21T00:44:35.090Z,99.99
2019-05-21T00:45:35.088Z,99.99
2019-05-21T00:46:35.073Z,99.99
2019-05-21T00:47:35.060Z,99.99
2019-05-21T00:48:35.055Z,99.99
2019-05-21T00:49:35.039Z,99.99
2019-05-21T00:50:35.045Z,99.99
2019-05-21T00:51:35.036Z,99.99
2019-05-21T00:52:35.006Z,99.99
2019-05-21T00:53:35.004Z,99.99
2019-05-21T00:54:34.989Z,99.99
2019-05-21T00:55:34.994Z,99.99
2019-05-21T00:56:34.950Z,99.60
2019-05-21T00:57:34.955Z,99.99
2019-05-21T00:58:34.936Z,99.99
2019-05-21T00:59:34.923Z,99.99
2019-05-21T01:00:34.907Z,99.99
2019-05-21T01:01:34.909Z,99.99
2019-05-21T01:02:34.966Z,99.99
2019-05-21T01:03:34.922Z,99.99
2019-05-21T01:04:34.870Z,99.99
2019-05-21T01:05:34.854Z,99.99
2019-05-21T01:06:34.836Z,99.80
2019-05-21T01:07:34.848Z,99.99
2019-05-21T01:08:34.831Z,99.99
2019-05-21T01:09:34.808Z,99.70
2019-05-21T01:10:34.791Z,99.99
2019-05-21T01:11:34.781Z,99.99
2019-05-21T01:12:34.771Z,99.99
2019-05-21T01:13:34.798Z,99.99
2019-05-21T01:14:34.743Z,99.65
2019-05-21T01:15:34.774Z,99.80
2019-05-21T01:16:34.732Z,99.95
2019-05-21T01:17:34.711Z,99.99
2019-05-21T01:18:34.734Z,99.70
2019-05-21T01:19:34.719Z,99.80
2019-05-21T01:20:34.679Z,99.99
2019-05-21T01:21:34.669Z,99.99
2019-05-21T01:22:34.659Z,99.85
2019-05-21T01:23:34.655Z,99.99
2019-05-21T01:24:34.631Z,99.99
2019-05-21T01:25:34.628Z,99.65
2019-05-21T01:26:34.617Z,99.99
2019-05-21T01:27:34.608Z,99.99
2019-05-21T01:28:34.623Z,99.95
2019-05-21T01:29:34.585Z,99.55
2019-05-21T01:30:34.595Z,99.85
2019-05-21T01:31:34.555Z,99.14
2019-05-21T01:32:34.537Z,99.24
2019-05-21T01:33:34.537Z,99.55
2019-05-21T01:34:34.700Z,99.99
2019-05-21T01:35:34.515Z,99.85
2019-05-21T01:36:34.523Z,99.75
2019-05-21T01:37:34.489Z,99.99
2019-05-21T01:38:34.491Z,99.99
2019-05-21T01:39:34.456Z,99.55
2019-05-21T01:40:34.447Z,99.99
2019-05-21T01:41:34.441Z,99.99
2019-05-21T01:42:34.433Z,99.65
2019-05-21T01:43:34.465Z,99.44
2019-05-21T01:44:34.431Z,99.65
2019-05-21T01:45:34.391Z,99.14
2019-05-21T01:46:34.387Z,99.44
2019-05-21T01:47:34.400Z,99.35
2019-05-21T01:48:34.381Z,99.35
2019-05-21T01:49:34.367Z,99.04
2019-05-21T01:50:34.341Z,99.85
2019-05-21T01:51:34.335Z,99.24
2019-05-21T01:52:34.327Z,99.85
2019-05-21T01:53:34.301Z,99.75
2019-05-21T01:54:34.302Z,99.75
2019-05-21T01:55:34.278Z,99.24
2019-05-21T01:56:34.273Z,99.04
2019-05-21T01:57:34.263Z,99.44
2019-05-21T01:58:34.256Z,98.94
2019-05-21T01:59:34.260Z,99.08
2019-05-21T02:00:34.258Z,99.29
2019-05-21T02:01:34.218Z,99.69
2019-05-21T02:02:34.203Z,99.80
2019-05-21T02:03:34.189Z,99.75
2019-05-21T02:04:34.226Z,99.60
2019-05-21T02:05:34.182Z,99.69
2019-05-21T02:06:34.187Z,99.80
2019-05-21T02:07:34.152Z,99.29
2019-05-21T02:08:34.137Z,99.69
2019-05-21T02:09:34.151Z,99.08
2019-05-21T02:10:34.127Z,99.60
2019-05-21T02:11:34.106Z,99.39
2019-05-21T02:12:34.097Z,99.60
2019-05-21T02:13:34.086Z,99.80
2019-05-21T02:14:34.085Z,99.80
2019-05-21T02:15:34.063Z,99.90
2019-05-21T02:16:34.059Z,99.80
2019-05-21T02:17:34.044Z,99.80
2019-05-21T02:18:34.028Z,99.49
2019-05-21T02:19:34.072Z,99.60
2019-05-21T02:20:34.016Z,99.60
2019-05-21T02:21:34.024Z,98.68
2019-05-21T02:22:34.010Z,98.88
2019-05-21T02:23:33.972Z,98.79
2019-05-21T02:24:33.998Z,98.68
2019-05-21T02:25:33.950Z,98.68
2019-05-21T02:26:33.950Z,98.58
2019-05-21T02:27:33.928Z,99.08
2019-05-21T02:28:33.919Z,98.68
2019-05-21T02:29:33.925Z,98.79
2019-05-21T02:30:33.905Z,98.68
2019-05-21T02:31:33.898Z,99.19
2019-05-21T02:32:33.878Z,98.88
2019-05-21T02:33:33.867Z,98.88
2019-05-21T02:34:33.886Z,98.99
2019-05-21T02:35:52.408Z,98.68
2019-05-21T02:36:34.833Z,98.83
2019-05-21T02:37:33.820Z,98.73
2019-05-21T02:38:33.822Z,98.32
2019-05-21T02:39:33.843Z,98.32
2019-05-21T02:40:33.801Z,98.68
2019-05-21T02:41:33.781Z,98.48
2019-05-21T02:42:33.780Z,98.48
2019-05-21T02:43:33.758Z,98.79
2019-05-21T02:44:33.754Z,98.32
2019-05-21T02:45:33.742Z,98.43
2019-05-21T02:46:33.722Z,98.58
2019-05-21T02:47:33.715Z,98.63
2019-05-21T02:48:33.717Z,98.43
2019-05-21T02:49:33.696Z,98.93
2019-05-21T02:50:33.681Z,98.32
2019-05-21T02:51:33.673Z,98.63
2019-05-21T02:52:33.662Z,98.63
2019-05-21T02:53:34.719Z,98.43
2019-05-21T02:54:40.743Z,98.43
2019-05-21T02:55:34.634Z,98.02
2019-05-21T02:56:33.620Z,97.92
2019-05-21T02:57:33.613Z,97.81
2019-05-21T02:58:36.558Z,98.32
2019-05-21T02:59:33.591Z,98.63
2019-05-21T03:00:38.232Z,98.43
2019-05-21T03:01:34.558Z,98.43
2019-05-21T03:02:33.560Z,98.32
2019-05-21T03:03:33.549Z,98.63
2019-05-21T03:04:33.564Z,98.73
2019-05-21T03:05:33.517Z,98.83
2019-05-21T03:06:33.506Z,98.83
2019-05-21T03:07:33.502Z,98.73
2019-05-21T03:08:37.629Z,98.52
2019-05-21T03:09:33.485Z,98.52
2019-05-21T03:10:33.477Z,98.63
2019-05-21T03:11:33.448Z,98.63
2019-05-21T03:12:33.442Z,98.47
2019-05-21T03:13:33.436Z,98.63
2019-05-21T03:14:33.435Z,98.43
2019-05-21T03:15:33.421Z,98.73
2019-05-21T03:16:33.397Z,98.07
2019-05-21T03:17:33.383Z,98.02
2019-05-21T03:18:33.377Z,97.96
2019-05-21T03:19:33.369Z,97.71
2019-05-21T03:20:33.385Z,97.71
2019-05-21T03:21:33.350Z,97.41
2019-05-21T03:22:33.337Z,97.51
2019-05-21T03:23:33.328Z,98.32
2019-05-21T03:24:36.041Z,97.86
2019-05-21T03:25:33.329Z,97.96
2019-05-21T03:26:33.321Z,98.07
2019-05-21T03:27:33.293Z,97.61
2019-05-21T03:28:33.269Z,97.76
2019-05-21T03:29:33.252Z,97.86
2019-05-21T03:30:33.254Z,98.16
2019-05-21T03:31:33.245Z,97.61
2019-05-21T03:32:33.220Z,98.02
2019-05-21T03:33:33.215Z,97.66
2019-05-21T03:34:33.210Z,97.45
2019-05-21T03:35:33.229Z,97.92
2019-05-21T03:36:34.441Z,97.61
2019-05-21T03:37:33.165Z,97.66
2019-05-21T03:38:33.154Z,97.56
2019-05-21T03:39:33.158Z,97.96
2019-05-21T03:40:33.143Z,98.27
2019-05-21T03:41:33.134Z,97.92
2019-05-21T03:42:33.112Z,97.86
2019-05-21T03:43:33.121Z,97.96
2019-05-21T03:44:33.118Z,97.76
2019-05-21T03:45:33.141Z,97.61
2019-05-21T03:46:33.144Z,97.51
2019-05-21T03:47:33.060Z,97.86
2019-05-21T03:48:33.090Z,98.22
2019-05-21T03:49:33.039Z,98.37
2019-05-21T03:50:33.024Z,98.27
2019-05-21T03:51:33.015Z,98.12
2019-05-21T03:52:33.006Z,97.86
2019-05-21T03:53:33.022Z,98.16
2019-05-21T03:54:32.991Z,98.37
2019-05-21T03:55:32.979Z,98.07
2019-05-21T03:56:32.979Z,98.16
2019-05-21T03:57:32.972Z,98.16
2019-05-21T03:58:32.941Z,97.92
2019-05-21T03:59:32.954Z,97.92
2019-05-21T04:00:32.929Z,97.71
2019-05-21T04:01:32.941Z,97.71
2019-05-21T04:02:32.896Z,97.92
2019-05-21T04:03:32.922Z,98.16
2019-05-21T04:04:32.883Z,98.07
2019-05-21T04:05:32.881Z,98.16
2019-05-21T04:06:50.271Z,97.96
2019-05-21T04:07:33.839Z,97.81
2019-05-21T04:08:32.839Z,98.16
2019-05-21T04:09:32.819Z,98.12
2019-05-21T04:10:32.998Z,98.52
2019-05-21T04:11:32.793Z,97.96
2019-05-21T04:12:32.783Z,98.02
2019-05-21T04:13:32.775Z,97.92
2019-05-21T04:14:32.763Z,97.92
2019-05-21T04:15:33.544Z,97.92
2019-05-21T04:16:32.748Z,97.61
2019-05-21T04:17:34.739Z,97.81
2019-05-21T04:18:32.742Z,98.27
2019-05-21T04:19:32.731Z,98.22
2019-05-21T04:20:32.699Z,98.02
2019-05-21T04:21:32.715Z,98.02
2019-05-21T04:22:32.677Z,97.71
2019-05-21T04:23:32.666Z,97.71
2019-05-21T04:24:32.654Z,97.71
2019-05-21T04:25:32.646Z,98.02
2019-05-21T04:26:32.650Z,98.52
2019-05-21T04:27:32.623Z,98.22
2019-05-21T04:28:32.607Z,97.71
2019-05-21T04:29:32.599Z,97.81
2019-05-21T04:30:32.621Z,98.02
2019-05-21T04:31:33.052Z,98.32
2019-05-21T04:32:32.611Z,97.92
2019-05-21T04:33:32.562Z,98.02
2019-05-21T04:34:32.542Z,98.22
2019-05-21T04:35:32.546Z,98.32
2019-05-21T04:36:32.558Z,97.41
2019-05-21T04:37:32.515Z,97.92
2019-05-21T04:38:32.540Z,98.52
2019-05-21T04:39:32.495Z,97.92
2019-05-21T04:40:32.477Z,98.02
2019-05-21T04:41:32.480Z,98.18
2019-05-21T04:42:32.454Z,98.22
2019-05-21T04:43:32.450Z,98.83
2019-05-21T04:44:32.487Z,97.56
2019-05-21T04:45:32.426Z,97.56
2019-05-21T04:46:32.443Z,98.12
2019-05-21T04:47:32.403Z,97.87
2019-05-21T04:48:32.399Z,98.28
2019-05-21T04:49:32.383Z,97.67
2019-05-21T04:50:32.366Z,97.97
2019-05-21T04:51:32.431Z,97.67
2019-05-21T04:52:32.342Z,97.97
2019-05-21T04:53:32.340Z,98.32
2019-05-21T04:54:32.327Z,98.07
2019-05-21T04:55:32.317Z,97.87
2019-05-21T04:56:32.304Z,98.18
2019-05-21T04:57:32.304Z,97.67
2019-05-21T04:58:32.279Z,97.77
2019-05-21T04:59:32.273Z,97.87
2019-05-21T05:00:32.258Z,97.87
2019-05-21T05:01:32.242Z,97.83
2019-05-21T05:02:32.238Z,98.28
2019-05-21T05:03:32.221Z,98.03
2019-05-21T05:04:32.212Z,97.77
2019-05-21T05:05:32.200Z,97.97
2019-05-21T05:06:32.189Z,98.03
2019-05-21T05:07:32.201Z,97.92
2019-05-21T05:08:32.175Z,98.43
2019-05-21T05:09:32.150Z,97.62
2019-05-21T05:10:32.152Z,98.23
2019-05-21T05:11:32.134Z,97.83
2019-05-21T05:12:32.129Z,98.13
2019-05-21T05:13:32.114Z,97.83
2019-05-21T05:14:32.099Z,97.72
2019-05-21T05:15:32.086Z,97.11
2019-05-21T05:16:32.087Z,96.81
2019-05-21T05:17:32.074Z,96.81
2019-05-21T05:18:32.053Z,96.71
2019-05-21T05:19:32.052Z,96.46
2019-05-21T05:20:32.032Z,96.77
2019-05-21T05:21:32.012Z,97.27
2019-05-21T05:22:32.009Z,96.56
2019-05-21T05:23:31.994Z,96.66
2019-05-21T05:24:31.982Z,96.56
2019-05-21T05:25:31.995Z,96.91
2019-05-21T05:26:31.956Z,96.36
2019-05-21T05:27:31.959Z,95.65
2019-05-21T05:28:31.930Z,95.65
2019-05-21T05:29:31.919Z,96.26
2019-05-21T05:30:31.918Z,96.26
2019-05-21T05:31:31.912Z,96.15
2019-05-21T05:32:31.890Z,96.36
2019-05-21T05:33:31.874Z,96.87
2019-05-21T05:34:31.870Z,96.66
2019-05-21T05:35:31.853Z,96.56
2019-05-21T05:36:31.838Z,96.56
2019-05-21T05:37:43.307Z,96.77
2019-05-21T05:38:32.819Z,96.87
2019-05-21T05:39:31.811Z,96.87
2019-05-21T05:40:31.791Z,96.66
2019-05-21T05:41:31.790Z,96.87
2019-05-21T05:42:31.797Z,94.84
2019-05-21T05:43:31.762Z,94.43
2019-05-21T05:44:31.744Z,93.02
2019-05-21T05:45:31.739Z,93.68
2019-05-21T05:46:31.729Z,94.54
2019-05-21T05:47:31.813Z,94.13
2019-05-21T05:48:31.704Z,94.49
2019-05-21T05:49:31.686Z,94.09
2019-05-21T05:50:31.680Z,94.09
2019-05-21T05:51:31.662Z,94.19
2019-05-21T05:52:31.695Z,93.27
2019-05-21T05:53:31.653Z,94.09
2019-05-21T05:54:31.634Z,93.48
2019-05-21T05:55:31.624Z,93.88
2019-05-21T05:56:31.614Z,93.68
2019-05-21T05:57:31.601Z,93.58
2019-05-21T05:58:31.598Z,93.38
2019-05-21T05:59:31.572Z,93.38
2019-05-21T06:00:31.565Z,92.83
2019-05-21T06:01:31.586Z,91.92
2019-05-21T06:02:31.541Z,92.02
2019-05-21T06:03:31.550Z,90.64
2019-05-21T06:04:31.526Z,90.40
2019-05-21T06:05:31.518Z,91.92
2019-05-21T06:06:31.498Z,89.99
2019-05-21T06:07:31.486Z,90.20
2019-05-21T06:08:31.487Z,89.39
2019-05-21T06:09:31.511Z,89.54
2019-05-21T06:10:31.447Z,90.66
2019-05-21T06:11:31.439Z,90.56
2019-05-21T06:12:31.425Z,91.06
2019-05-21T06:13:31.446Z,91.06
2019-05-21T06:14:31.407Z,91.67
2019-05-21T06:15:31.404Z,91.67
2019-05-21T06:16:31.377Z,91.57
2019-05-21T06:17:31.371Z,91.06
2019-05-21T06:18:31.384Z,89.14
2019-05-21T06:19:31.354Z,88.70
2019-05-21T06:20:31.338Z,88.39
2019-05-21T06:21:31.327Z,88.59
2019-05-21T06:22:31.319Z,88.29
2019-05-21T06:23:31.317Z,90.21
2019-05-21T06:24:31.294Z,89.61
2019-05-21T06:25:31.286Z,90.11
2019-05-21T06:26:31.271Z,90.01
2019-05-21T06:27:31.272Z,89.10
2019-05-21T06:28:31.253Z,90.31
2019-05-21T06:29:31.238Z,90.41
2019-05-21T06:30:31.231Z,90.41
2019-05-21T06:31:31.222Z,90.52
2019-05-21T06:32:31.199Z,90.72
2019-05-21T06:33:31.207Z,90.82
2019-05-21T06:34:31.191Z,91.02
2019-05-21T06:35:31.172Z,88.75
2019-05-21T06:36:31.155Z,88.65
2019-05-21T06:37:31.144Z,87.68
2019-05-21T06:38:31.140Z,88.35
2019-05-21T06:39:31.151Z,88.55
2019-05-21T06:40:31.119Z,88.45
2019-05-21T06:41:31.105Z,88.45
2019-05-21T06:42:31.103Z,89.26
2019-05-21T06:43:31.097Z,88.96
2019-05-21T06:44:31.077Z,89.26
2019-05-21T06:45:31.057Z,88.45
2019-05-21T06:46:31.044Z,88.61
2019-05-21T06:47:31.037Z,89.22
2019-05-21T06:48:31.042Z,89.16
2019-05-21T06:49:31.011Z,90.03
2019-05-21T06:50:31.025Z,89.92
2019-05-21T06:51:31.071Z,89.92
2019-05-21T06:52:30.982Z,89.62
2019-05-21T06:53:30.984Z,88.31
2019-05-21T06:54:30.972Z,87.81
2019-05-21T06:55:30.949Z,88.31
2019-05-21T06:56:30.937Z,88.71
2019-05-21T06:57:30.926Z,88.26
2019-05-21T06:58:30.919Z,88.37
2019-05-21T06:59:30.908Z,88.31
2019-05-21T07:00:30.887Z,88.51
2019-05-21T07:01:30.940Z,88.87
2019-05-21T07:02:30.869Z,88.51
2019-05-21T07:03:30.886Z,87.05
2019-05-21T07:04:30.858Z,87.05
2019-05-21T07:05:30.846Z,87.26
2019-05-21T07:06:30.822Z,86.65
2019-05-21T07:07:30.815Z,87.66
2019-05-21T07:08:34.500Z,87.86
2019-05-21T07:09:30.803Z,87.86
2019-05-21T07:10:30.777Z,86.55
2019-05-21T07:11:30.774Z,86.95
2019-05-21T07:12:30.753Z,83.72
2019-05-21T07:13:31.251Z,83.01
2019-05-21T07:14:30.740Z,82.47
2019-05-21T07:15:30.722Z,83.38
2019-05-21T07:16:30.729Z,84.29
2019-05-21T07:17:30.737Z,84.89
2019-05-21T07:18:30.688Z,85.80
2019-05-21T07:19:30.686Z,85.60
2019-05-21T07:20:30.664Z,85.70
2019-05-21T07:21:30.658Z,83.64
2019-05-21T07:22:30.694Z,80.72
2019-05-21T07:23:30.636Z,82.27
2019-05-21T07:24:30.634Z,82.13
2019-05-21T07:25:30.606Z,82.84
2019-05-21T07:26:30.632Z,82.33
2019-05-21T07:27:30.601Z,82.93
2019-05-21T07:28:30.582Z,84.11
2019-05-21T07:29:30.575Z,83.64
2019-05-21T07:30:30.559Z,83.14
2019-05-21T07:31:30.538Z,82.19
2019-05-21T07:32:30.531Z,82.19
2019-05-21T07:33:30.522Z,82.50
2019-05-21T07:34:30.522Z,82.09
2019-05-21T07:35:30.493Z,82.19
2019-05-21T07:36:30.483Z,81.48
2019-05-21T07:37:30.472Z,81.48
2019-05-21T07:38:30.459Z,79.06
2019-05-21T07:39:30.464Z,79.93
2019-05-21T07:40:30.444Z,80.04
2019-05-21T07:41:30.436Z,79.43
2019-05-21T07:42:30.413Z,80.54
2019-05-21T07:43:30.407Z,82.25
2019-05-21T07:44:30.408Z,82.25
2019-05-21T07:45:30.384Z,78.92
2019-05-21T07:46:30.378Z,78.99
2019-05-21T07:47:30.358Z,79.19
2019-05-21T07:48:30.347Z,79.29
2019-05-21T07:49:30.360Z,79.19
2019-05-21T07:50:30.323Z,78.89
2019-05-21T07:51:30.327Z,78.89
2019-05-21T07:52:30.306Z,79.09
2019-05-21T07:53:30.293Z,79.60
2019-05-21T07:54:30.292Z,78.69
2019-05-21T07:55:30.267Z,78.28
2019-05-21T07:56:30.258Z,77.95
2019-05-21T07:57:30.251Z,78.08
2019-05-21T07:58:30.239Z,78.25
2019-05-21T07:59:30.236Z,79.36
2019-05-21T08:00:30.213Z,79.96
2019-05-21T08:01:30.206Z,79.05
2019-05-21T08:02:30.193Z,78.65
2019-05-21T08:03:30.187Z,78.45
2019-05-21T08:04:30.198Z,76.43
2019-05-21T08:05:30.157Z,77.14
2019-05-21T08:06:30.149Z,76.94
2019-05-21T08:07:30.137Z,76.54
2019-05-21T08:08:30.130Z,76.10
2019-05-21T08:09:30.133Z,75.49
2019-05-21T08:10:30.213Z,74.55
2019-05-21T08:11:30.088Z,75.70
2019-05-21T08:12:38.740Z,75.86
2019-05-21T08:13:31.070Z,76.46
2019-05-21T08:14:30.076Z,76.16
2019-05-21T08:15:30.055Z,74.45
2019-05-21T08:16:30.040Z,73.98
2019-05-21T08:17:30.027Z,74.08
2019-05-21T08:18:30.019Z,75.35
2019-05-21T08:19:31.272Z,76.36
2019-05-21T08:20:30.000Z,76.87
2019-05-21T08:21:29.989Z,76.06
2019-05-21T08:22:29.976Z,75.46
2019-05-21T08:23:29.968Z,72.34
2019-05-21T08:24:29.970Z,72.44
2019-05-21T08:25:29.974Z,71.70
2019-05-21T08:26:29.925Z,71.50
2019-05-21T08:27:29.915Z,70.09
2019-05-21T08:28:29.903Z,69.89
2019-05-21T08:29:29.894Z,69.69
2019-05-21T08:30:29.883Z,71.16
2019-05-21T08:31:29.872Z,72.37
2019-05-21T08:32:29.858Z,68.85
2019-05-21T08:33:29.841Z,69.96
2019-05-21T08:34:29.835Z,70.56
2019-05-21T08:35:29.829Z,71.16
2019-05-21T08:36:29.814Z,71.06
2019-05-21T08:37:29.812Z,68.38
2019-05-21T08:38:29.796Z,69.35
2019-05-21T08:39:29.782Z,68.55
2019-05-21T08:40:29.776Z,69.06
2019-05-21T08:41:29.756Z,70.46
2019-05-21T08:42:29.747Z,71.56
2019-05-21T08:43:29.732Z,71.67
2019-05-21T08:44:29.723Z,71.06
2019-05-21T08:45:29.721Z,67.94
2019-05-21T08:46:29.708Z,67.91
2019-05-21T08:47:29.715Z,67.82
2019-05-21T08:48:29.686Z,67.61
2019-05-21T08:49:29.662Z,67.71
2019-05-21T08:50:29.660Z,68.02
2019-05-21T08:51:29.639Z,71.09
2019-05-21T08:52:29.626Z,70.89
2019-05-21T08:53:29.619Z,71.00
2019-05-21T08:54:29.612Z,70.79
2019-05-21T08:55:29.607Z,69.99
2019-05-21T08:56:29.590Z,69.92
2019-05-21T08:57:29.576Z,70.19
2019-05-21T08:58:29.568Z,71.00
2019-05-21T08:59:29.553Z,70.79
2019-05-21T09:00:29.560Z,67.88
2019-05-21T09:01:29.526Z,68.38
2019-05-21T09:02:29.515Z,68.18
2019-05-21T09:03:29.513Z,69.39
2019-05-21T09:04:45.379Z,69.79
2019-05-21T09:05:30.493Z,70.06
2019-05-21T09:06:29.474Z,69.76
2019-05-21T09:07:29.464Z,69.09
2019-05-21T09:08:29.449Z,69.99
2019-05-21T09:09:48.423Z,66.64
2019-05-21T09:10:30.442Z,68.15
2019-05-21T09:11:29.488Z,67.85
2019-05-21T09:12:29.443Z,68.45
2019-05-21T09:13:29.398Z,68.35
2019-05-21T09:14:29.381Z,68.15
2019-05-21T09:15:29.379Z,69.26
2019-05-21T09:16:29.365Z,66.95
2019-05-21T09:17:29.349Z,65.61
2019-05-21T09:18:29.338Z,65.04
2019-05-21T09:19:29.325Z,67.61
2019-05-21T09:20:29.323Z,67.82
2019-05-21T09:21:29.318Z,63.50
2019-05-21T09:22:29.315Z,62.10
2019-05-21T09:23:29.285Z,62.40
2019-05-21T09:24:29.271Z,61.77
2019-05-21T09:25:29.269Z,64.48
2019-05-21T09:26:29.259Z,63.07
2019-05-21T09:27:29.244Z,64.07
2019-05-21T09:28:29.231Z,65.58
2019-05-21T09:29:29.226Z,65.98
2019-05-21T09:30:29.215Z,65.98
2019-05-21T09:31:29.192Z,66.48
2019-05-21T09:32:29.181Z,66.99
2019-05-21T09:33:29.182Z,67.05
2019-05-21T09:34:29.163Z,63.14
2019-05-21T09:35:29.158Z,63.54
2019-05-21T09:36:29.144Z,65.65
2019-05-21T09:37:29.123Z,67.05
2019-05-21T09:38:29.116Z,64.95
2019-05-21T09:39:29.103Z,62.04
2019-05-21T09:40:29.103Z,61.54
2019-05-21T09:41:29.080Z,61.31
2019-05-21T09:42:29.072Z,61.31
2019-05-21T09:43:29.064Z,61.91
2019-05-21T09:44:29.045Z,61.91
2019-05-21T09:45:29.059Z,61.34
2019-05-21T09:46:29.035Z,60.81
2019-05-21T09:47:29.025Z,60.71
2019-05-21T09:48:29.007Z,60.38
2019-05-21T09:49:28.989Z,60.68
2019-05-21T09:50:28.978Z,62.38
2019-05-21T09:51:28.975Z,63.06
2019-05-21T09:52:28.961Z,64.15
2019-05-21T09:53:28.958Z,64.55
2019-05-21T09:54:28.940Z,62.48
2019-05-21T09:55:28.930Z,61.25
2019-05-21T09:56:28.940Z,61.05
2019-05-21T09:57:28.910Z,60.35
2019-05-21T09:58:28.904Z,58.85
2019-05-21T09:59:28.884Z,59.02
2019-05-21T10:00:28.871Z,57.92
2019-05-21T10:01:28.873Z,58.09
2019-05-21T10:02:28.852Z,58.00
2019-05-21T10:03:28.839Z,57.29
2019-05-21T10:04:28.822Z,57.59
2019-05-21T10:05:28.817Z,57.50
2019-05-21T10:06:28.816Z,57.46
2019-05-21T10:07:39.074Z,57.46
2019-05-21T10:08:29.786Z,57.19
2019-05-21T10:09:28.770Z,59.06
2019-05-21T10:10:28.768Z,58.06
2019-05-21T10:11:28.780Z,57.26
2019-05-21T10:12:28.738Z,57.17
2019-05-21T10:13:28.727Z,57.57
2019-05-21T10:14:28.712Z,57.26
2019-05-21T10:15:28.708Z,56.34
2019-05-21T10:16:28.727Z,55.94
2019-05-21T10:17:28.681Z,56.44
2019-05-21T10:18:28.669Z,56.34
2019-05-21T10:19:28.660Z,57.54
2019-05-21T10:20:28.647Z,57.64
2019-05-21T10:21:28.632Z,58.01
2019-05-21T10:22:28.636Z,58.81
2019-05-21T10:23:28.607Z,58.21
2019-05-21T10:24:28.597Z,57.51
2019-05-21T10:25:28.593Z,56.81
2019-05-21T10:26:28.640Z,56.21
2019-05-21T10:27:28.575Z,56.11
2019-05-21T10:28:28.553Z,58.68
2019-05-21T10:29:28.544Z,53.42
2019-05-21T10:30:28.536Z,53.89
2019-05-21T10:31:28.583Z,54.99
2019-05-21T10:32:28.528Z,55.88
2019-05-21T10:33:28.509Z,55.99
2019-05-21T10:34:28.492Z,56.16
2019-05-21T10:35:28.480Z,54.24
2019-05-21T10:36:28.464Z,54.75
2019-05-21T10:37:28.468Z,50.23
2019-05-21T10:38:28.449Z,47.09
2019-05-21T10:39:28.434Z,41.12
2019-05-21T10:40:28.419Z,40.13
2019-05-21T10:41:28.412Z,39.58
2019-05-21T10:42:28.415Z,37.78
2019-05-21T10:43:28.396Z,35.83
2019-05-21T10:44:28.375Z,37.86
2019-05-21T10:45:28.369Z,35.14
2019-05-21T10:46:28.362Z,33.07
2019-05-21T10:47:28.368Z,30.96
2019-05-21T10:48:28.333Z,30.49
2019-05-21T10:49:28.329Z,30.22
2019-05-21T10:50:28.314Z,29.57
2019-05-21T10:51:28.316Z,29.33
2019-05-21T10:52:28.301Z,27.08
2019-05-21T10:53:28.376Z,27.15
2019-05-21T10:54:28.280Z,26.83
2019-05-21T10:55:28.268Z,26.43
2019-05-21T10:56:28.263Z,26.89
2019-05-21T10:57:28.271Z,27.96
2019-05-21T10:58:28.242Z,26.93
2019-05-21T10:59:28.229Z,27.29
2019-05-21T11:00:28.223Z,25.73
2019-05-21T11:01:28.217Z,26.34
2019-05-21T11:02:28.216Z,27.55
2019-05-21T11:03:28.199Z,29.82
2019-05-21T11:04:28.194Z,31.05
2019-05-21T11:05:28.942Z,30.37
2019-05-21T11:06:28.163Z,31.16
2019-05-21T11:07:28.180Z,32.27
2019-05-21T11:08:28.146Z,30.44
2019-05-21T11:09:28.145Z,31.32
2019-05-21T11:10:28.142Z,31.76
2019-05-21T11:11:28.145Z,35.60
2019-05-21T11:12:28.116Z,35.66
2019-05-21T11:13:28.112Z,36.28
2019-05-21T11:14:28.095Z,36.49
2019-05-21T11:15:28.093Z,36.32
2019-05-21T11:16:28.082Z,37.95
2019-05-21T11:17:28.068Z,36.52
2019-05-21T11:18:28.066Z,35.08
2019-05-21T11:19:28.061Z,33.75
2019-05-21T11:20:28.037Z,32.04
2019-05-21T11:21:28.028Z,30.83
2019-05-21T11:22:28.024Z,30.29
2019-05-21T11:23:28.035Z,29.76
2019-05-21T11:24:28.001Z,28.57
2019-05-21T11:25:27.994Z,28.18
2019-05-21T11:26:27.980Z,27.18
2019-05-21T11:27:27.977Z,25.24
2019-05-21T11:28:27.975Z,25.45
2019-05-21T11:29:27.994Z,26.17
2019-05-21T11:30:27.953Z,26.92
2019-05-21T11:31:27.936Z,29.04
2019-05-21T11:32:27.928Z,31.24
2019-05-21T11:33:27.933Z,31.40
2019-05-21T11:34:27.929Z,33.91
2019-05-21T11:35:27.904Z,35.02
2019-05-21T11:36:27.896Z,34.54
2019-05-21T11:37:27.882Z,35.05
2019-05-21T11:38:39.418Z,35.23
2019-05-21T11:39:28.862Z,34.72
2019-05-21T11:40:27.856Z,33.80
2019-05-21T11:41:27.841Z,32.02
2019-05-21T11:42:27.835Z,32.40
2019-05-21T11:43:27.833Z,32.51
2019-05-21T11:44:27.818Z,32.33
2019-05-21T11:45:32.175Z,33.70
2019-05-21T11:46:28.798Z,32.41
2019-05-21T11:47:27.794Z,32.38
2019-05-21T11:48:27.787Z,31.45
2019-05-21T11:49:27.766Z,30.78
2019-05-21T11:50:27.765Z,30.58
2019-05-21T11:51:27.767Z,30.15
2019-05-21T11:52:27.736Z,29.16
2019-05-21T11:53:31.379Z,29.84
2019-05-21T11:54:27.717Z,28.57
2019-05-21T11:55:27.701Z,28.78
2019-05-21T11:56:27.700Z,29.46
2019-05-21T11:57:27.703Z,29.55
2019-05-21T11:58:27.691Z,29.44
2019-05-21T11:59:27.671Z,30.88
2019-05-21T12:00:27.657Z,30.18
2019-05-21T12:01:27.652Z,27.33
2019-05-21T12:02:27.637Z,27.68
2019-05-21T12:03:27.633Z,27.06
2019-05-21T12:04:27.634Z,26.06
2019-05-21T12:05:27.619Z,25.95
2019-05-21T12:06:27.602Z,27.47
2019-05-21T12:07:27.595Z,25.89
2019-05-21T12:08:27.596Z,24.41
2019-05-21T12:09:27.590Z,24.21
2019-05-21T12:10:27.573Z,23.33
2019-05-21T12:11:27.559Z,23.83
2019-05-21T12:12:27.587Z,23.57
2019-05-21T12:13:27.588Z,24.07
2019-05-21T12:14:27.543Z,25.18
2019-05-21T12:15:27.528Z,27.03
2019-05-21T12:16:27.523Z,27.90
2019-05-21T12:17:27.511Z,25.84
2019-05-21T12:18:27.509Z,27.26
2019-05-21T12:19:27.510Z,26.17
2019-05-21T12:20:36.917Z,23.72
2019-05-21T12:21:28.483Z,23.33
2019-05-21T12:22:27.500Z,23.12
2019-05-21T12:23:27.573Z,22.56
2019-05-21T12:24:27.807Z,23.28
2019-05-21T12:25:27.478Z,24.57
2019-05-21T12:26:27.459Z,25.58
2019-05-21T12:27:27.435Z,26.30
2019-05-21T12:28:27.422Z,26.61
2019-05-21T12:29:27.423Z,27.42
2019-05-21T12:30:27.412Z,30.96
2019-05-21T12:31:27.407Z,28.25
2019-05-21T12:32:27.391Z,30.23
2019-05-21T12:33:27.381Z,31.24
2019-05-21T12:34:27.386Z,31.77
2019-05-21T12:35:27.371Z,33.49
2019-05-21T12:36:27.365Z,34.82
2019-05-21T12:37:27.350Z,36.65
2019-05-21T12:38:27.349Z,37.45
2019-05-21T12:39:27.384Z,39.15
2019-05-21T12:40:27.320Z,39.36
2019-05-21T12:41:27.336Z,37.70
2019-05-21T12:42:27.304Z,37.80
2019-05-21T12:43:27.291Z,38.47
2019-05-21T12:44:27.287Z,40.90
2019-05-21T12:45:27.295Z,39.17
2019-05-21T12:46:27.261Z,37.21
2019-05-21T12:47:27.255Z,34.78
2019-05-21T12:48:27.240Z,31.32
2019-05-21T12:49:27.240Z,32.23
2019-05-21T12:50:27.222Z,32.28
2019-05-21T12:51:27.215Z,33.10
2019-05-21T12:52:27.204Z,33.82